Wetterdaten: aktuell Mittwoch, 27.07.2016 21:00
Datum Zeit Temperatur Feuchte Luftdruck Regen Wind Richtung Richtung Taupunkt Windchill
27.07.2016 21:00 20,8 C 63 % 1014,0 hPa 0,0 l/m 0,0 km/h (0 Bft) - - 0 13,5 C 20,8 C
27.07.2016 20:00 21,8 C 60 % 1012,9 hPa 0,0 l/m 0,0 km/h (0 Bft) - - 0 13,7 C 21,8 C
27.07.2016 19:00 23,2 C 57 % 1012,8 hPa 0,0 l/m 0,0 km/h (0 Bft) - - 0 14,2 C 23,2 C
27.07.2016 18:00 23,1 C 57 % 1012,8 hPa 0,0 l/m 0,0 km/h (0 Bft) - - 0 14,1 C 23,1 C
27.07.2016 17:00 25,1 C 52 % 1012,7 hPa 0,0 l/m 0,0 km/h (0 Bft) - - 0 14,5 C 25,1 C
27.07.2016 16:00 24,3 C 52 % 1012,7 hPa 0,0 l/m 0,0 km/h (0 Bft) - - 0 13,8 C 24,3 C
27.07.2016 15:00 24,8 C 52 % 1012,7 hPa 0,0 l/m 0,0 km/h (0 Bft) - - 0 14,3 C 24,8 C
27.07.2016 14:00 24,5 C 51 % 1013,7 hPa 0,0 l/m 0,0 km/h (0 Bft) - - 0 13,7 C 24,5 C
27.07.2016 13:00 23,4 C 59 % 1013,8 hPa 0,0 l/m 0,0 km/h (0 Bft) - - 0 14,9 C 23,4 C
27.07.2016 12:00 20,5 C 71 % 1015,1 hPa 0,0 l/m 0,0 km/h (0 Bft) - - 0 15,1 C 20,5 C
27.07.2016 11:00 20,5 C 72 % 1015,1 hPa 0,0 l/m 0,0 km/h (0 Bft) - - 0 15,3 C 20,5 C
27.07.2016 10:00 19,6 C 79 % 1015,1 hPa 0,0 l/m 0,0 km/h (0 Bft) - - 0 15,9 C 19,6 C
27.07.2016 09:00 17,9 C 86 % 1015,3 hPa 0,0 l/m 0,0 km/h (0 Bft) - - 0 15,5 C 17,9 C
27.07.2016 08:00 15,8 C 93 % 1015,5 hPa 0,0 l/m 0,0 km/h (0 Bft) - - 0 14,7 C 15,8 C
27.07.2016 07:00 15,0 C 93 % 1014,5 hPa 0,0 l/m 0,0 km/h (0 Bft) - - 0 13,9 C 15,0 C
27.07.2016 06:00 15,0 C 91 % 1014,5 hPa 0,0 l/m 0,0 km/h (0 Bft) - - 0 13,5 C 15,0 C
27.07.2016 05:00 14,7 C 89 % 1015,5 hPa 0,0 l/m 0,0 km/h (0 Bft) - - 0 12,9 C 14,7 C
27.07.2016 04:00 14,8 C 89 % 1015,5 hPa 0,0 l/m 0,0 km/h (0 Bft) - - 0 13,0 C 14,8 C
27.07.2016 03:00 15,0 C 87 % 1016,5 hPa 0,0 l/m 0,0 km/h (0 Bft) - - 0 12,9 C 15,0 C
27.07.2016 02:00 15,5 C 86 % 1016,5 hPa 0,0 l/m 0,0 km/h (0 Bft) - - 0 13,2 C 15,5 C
27.07.2016 01:00 15,6 C 85 % 1016,5 hPa 0,0 l/m 0,0 km/h (0 Bft) - - 0 13,1 C 15,6 C
27.07.2016 00:00 16,2 C 82 % 1016,4 hPa 0,0 l/m 0,0 km/h (0 Bft) - - 0 13,1 C 16,2 C
26.07.2016 23:00 17,0 C 78 % 1017,4 hPa 0,0 l/m 0,0 km/h (0 Bft) - - 0 13,1 C 17,0 C
26.07.2016 22:00 18,0 C 73 % 1017,3 hPa 0,0 l/m 0,0 km/h (0 Bft) - - 0 13,1 C 18,0 C
_ Min-Zeit 05:09 14:15 15:30 - 22:00 - - 02:30 05:09
Minimum _ 14,5 C 48 % 1012,6 hPa - 0,0 km/h (0 Bft) - - 12,7 C 14,5 C
_ Max-Zeit 15:30 06:42 23:12 22:00 22:00 - - 10:00 15:30
Maximum _ 25,7 C 93 % 1017,4 hPa 0,0 l/m 0,0 km/h
- - (0 Bft)
- - 15,9 C 25,7 C
Durchschnitt _ 19,1 C 73 % 1015,0 hPa #0,0 l/m 0,0 km/h (0 Bft) - - - 13,9 C 19,1 C